Smiley Heights, California
Current Conditions -  °F | °C
As of 8:50 PM on Sunday 25 Jan 2015 (Local Time) from KSBD Reporting Station
Broken Clouds Broken Clouds  
Wind Chill: 55°   Ceiling: 15000
Heat Index: 55°   Visibility: 10mi
Dew Point: 32°   Wind: 5mph
Humidity: 41%   Direction: 230°SW
Pressure: 30.08"   Gusts: NA
Location:  34.0057°N, 117.15°W
Report Text: KSBD 260450Z 23004KT 10SM BKN150 13/00 A3008 RMK LAST
Loading
Personal Weather Stations






























Interactive Weather Map New forecast layout! Learn more

10-Day Weather Forecast

Advertisements
Track Severe Weather on mobile